Time;durP1;ratioP1;P1;durP2;ratioP2;P2;SDS_P1;SDS_P2;PMS_P1;PMS_P2;Temp;Humidity;BMP_temperature;BMP_pressure;BME280_temperature;BME280_humidity;BME280_pressure;Samples;Min_cycle;Max_cycle;Signal;HPM_P1;HPM_P2
2022/11/19 00:00:54;;;;;;;2.88;1.17;;;20.80;65.40;;;;;;5015148;28;86190;-80
2022/11/19 00:03:21;;;;;;;1.33;0.93;;;20.80;65.30;;;;;;5012937;28;85916;-80
2022/11/19 00:05:48;;;;;;;1.58;0.95;;;20.80;65.40;;;;;;5011164;28;86095;-79
2022/11/19 00:08:18;;;;;;;3.03;1.30;;;20.80;65.20;;;;;;5016728;28;87408;-79
2022/11/19 00:10:44;;;;;;;;;;;20.80;65.40;;;;;;5016961;27;86647;-80
2022/11/19 00:13:11;;;;;;;1.80;1.10;;;20.80;65.40;;;;;;5019797;28;86290;-79
2022/11/19 00:15:36;;;;;;;1.52;1.10;;;20.80;65.30;;;;;;5018262;28;86239;-80
2022/11/19 00:18:05;;;;;;;3.75;1.38;;;20.80;65.40;;;;;;5013477;28;86664;-79
2022/11/19 00:20:33;;;;;;;2.00;1.25;;;20.70;65.50;;;;;;4997096;28;88657;-79
2022/11/19 00:22:59;;;;;;;2.42;1.35;;;20.70;65.40;;;;;;5014270;28;86722;-80
2022/11/19 00:25:27;;;;;;;1.83;1.20;;;20.70;65.60;;;;;;5016654;27;92851;-79
2022/11/19 00:27:53;;;;;;;2.80;1.45;;;20.70;65.50;;;;;;5027661;27;87593;-80
2022/11/19 00:30:19;;;;;;;1.95;1.27;;;20.70;65.60;;;;;;5029627;27;86947;-80
2022/11/19 00:32:45;;;;;;;1.83;1.25;;;20.70;65.60;;;;;;5014983;28;86358;-79
2022/11/19 00:35:11;;;;;;;1.75;0.90;;;20.60;65.70;;;;;;5014676;28;86296;-80
2022/11/19 00:37:37;;;;;;;2.22;1.20;;;20.70;65.60;;;;;;5032983;27;86636;-79
2022/11/19 00:40:04;;;;;;;2.47;1.20;;;20.70;65.70;;;;;;5022059;27;87263;-79
2022/11/19 00:42:30;;;;;;;3.30;1.27;;;20.70;65.60;;;;;;5015063;28;86061;-80
2022/11/19 00:44:55;;;;;;;2.03;1.15;;;20.60;65.50;;;;;;5013427;28;86156;-80
2022/11/19 00:47:21;;;;;;;2.53;1.40;;;20.70;65.70;;;;;;5006758;28;88154;-80
2022/11/19 00:49:46;;;;;;;2.72;1.17;;;20.60;65.60;;;;;;5016218;28;87131;-80
2022/11/19 00:52:12;;;;;;;1.92;1.17;;;20.60;65.40;;;;;;5013225;27;85780;-79
2022/11/19 00:54:38;;;;;;;1.95;1.15;;;20.60;65.40;;;;;;5015826;28;86315;-80
2022/11/19 00:57:03;;;;;;;2.53;1.40;;;20.60;65.60;;;;;;5012823;28;86287;-80
2022/11/19 00:59:29;;;;;;;1.30;1.15;;;20.60;65.50;;;;;;5014971;28;87396;-79
2022/11/19 01:01:54;;;;;;;1.63;1.15;;;20.50;65.60;;;;;;5018958;28;85968;-80
2022/11/19 01:04:20;;;;;;;1.60;1.15;;;20.60;65.60;;;;;;5016330;28;85698;-80
2022/11/19 01:06:46;;;;;;;1.75;1.17;;;20.50;65.70;;;;;;5018316;28;87007;-79
2022/11/19 01:09:12;;;;;;;1.70;1.20;;;20.50;65.70;;;;;;5015204;28;86443;-79
2022/11/19 01:11:37;;;;;;;1.27;1.00;;;20.60;65.80;;;;;;5017940;28;86418;-80
2022/11/19 01:14:04;;;;;;;1.70;1.17;;;20.50;65.70;;;;;;5014411;28;85800;-80
2022/11/19 01:16:32;;;;;;;1.73;1.15;;;20.50;65.80;;;;;;5016667;28;86968;-80
2022/11/19 01:18:59;;;;;;;1.63;1.20;;;20.50;65.80;;;;;;5016116;28;86307;-80
2022/11/19 01:21:27;;;;;;;2.55;1.17;;;20.50;65.90;;;;;;4994528;28;86510;-79
2022/11/19 01:23:53;;;;;;;3.03;1.50;;;20.50;65.90;;;;;;5016562;28;85740;-80
2022/11/19 01:26:19;;;;;;;1.10;1.00;;;20.50;65.70;;;;;;5016194;28;87335;-79
2022/11/19 01:28:45;;;;;;;2.45;1.20;;;20.50;65.80;;;;;;5012312;28;86467;-80
2022/11/19 01:31:16;;;;;;;4.30;1.38;;;20.40;65.90;;;;;;5016562;28;86103;-79
2022/11/19 01:33:42;;;;;;;2.08;1.30;;;20.40;66.00;;;;;;5014837;28;85745;-79
2022/11/19 01:36:14;;;;;;;2.10;1.15;;;20.50;65.80;;;;;;5016279;27;87084;-80
2022/11/19 01:38:39;;;;;;;1.20;0.90;;;20.40;65.80;;;;;;5013721;28;86138;-79
2022/11/19 01:41:05;;;;;;;1.55;1.08;;;20.40;65.90;;;;;;5018033;28;86008;-80
2022/11/19 01:43:49;;;;;;;1.35;1.10;;;20.40;65.70;;;;;;5011676;28;86277;-80
2022/11/19 01:46:20;;;;;;;1.67;1.00;;;20.40;65.70;;;;;;5013002;28;88846;-80
2022/11/19 01:49:09;;;;;;;0.95;0.82;;;20.40;65.80;;;;;;5012181;27;85953;-80
2022/11/19 01:51:38;;;;;;;3.20;1.13;;;20.40;65.90;;;;;;5012765;28;86349;-80
2022/11/19 01:54:27;;;;;;;1.75;1.10;;;20.40;66.10;;;;;;5018742;28;85635;-79
2022/11/19 01:56:54;;;;;;;1.60;1.05;;;20.40;65.90;;;;;;5014586;28;87751;-79
2022/11/19 01:59:20;;;;;;;1.20;1.10;;;20.40;66.00;;;;;;5018368;28;86064;-79
2022/11/19 02:01:46;;;;;;;1.80;1.17;;;20.40;65.90;;;;;;5019191;28;85992;-80
2022/11/19 02:04:14;;;;;;;1.60;1.15;;;20.30;66.00;;;;;;5014365;28;86369;-80
2022/11/19 02:06:41;;;;;;;2.72;1.38;;;20.30;66.00;;;;;;5015869;28;87791;-79
2022/11/19 02:09:07;;;;;;;2.00;1.02;;;20.30;65.80;;;;;;5019818;28;86776;-79
2022/11/19 02:12:03;;;;;;;1.60;1.02;;;20.30;65.90;;;;;;5021205;28;86452;-79
2022/11/19 02:14:42;;;;;;;3.25;1.25;;;20.30;66.00;;;;;;5017276;28;86447;-79
2022/11/19 02:17:20;;;;;;;2.30;1.23;;;20.30;66.00;;;;;;5015785;27;86457;-79
2022/11/19 02:20:28;;;;;;;1.10;0.98;;;20.30;66.00;;;;;;5019387;28;86724;-80
2022/11/19 02:23:24;;;;;;;1.67;1.08;;;20.30;66.00;;;;;;4927788;28;86733;-79
2022/11/19 02:26:27;;;;;;;1.40;1.10;;;20.30;65.90;;;;;;4944413;28;85922;-80
2022/11/19 02:29:18;;;;;;;2.10;1.15;;;20.30;66.00;;;;;;4946843;28;86860;-79
2022/11/19 02:31:54;;;;;;;1.45;1.13;;;20.30;66.10;;;;;;4947079;28;86985;-80
2022/11/19 02:34:29;;;;;;;2.88;1.27;;;20.20;66.00;;;;;;4947425;28;86038;-79
2022/11/19 02:37:20;;;;;;;3.08;1.73;;;20.20;66.20;;;;;;4947344;28;86544;-79
2022/11/19 02:40:13;;;;;;;1.98;1.42;;;20.20;66.00;;;;;;4947100;28;87591;-80
2022/11/19 02:42:50;;;;;;;1.25;1.00;;;20.20;66.10;;;;;;4946145;28;87049;-79
2022/11/19 02:45:22;;;;;;;2.13;1.13;;;20.20;66.10;;;;;;4946669;28;86206;-80
2022/11/19 02:47:58;;;;;;;1.48;1.02;;;20.20;66.00;;;;;;4946927;28;86196;-79
2022/11/19 02:50:30;;;;;;;1.75;1.10;;;20.20;66.00;;;;;;4947247;28;87553;-80
2022/11/19 02:52:56;;;;;;;1.38;1.08;;;20.20;66.30;;;;;;4946431;28;86867;-80
2022/11/19 02:55:22;;;;;;;1.30;1.05;;;20.20;66.00;;;;;;4947172;28;86532;-79
2022/11/19 02:57:56;;;;;;;1.40;1.02;;;20.20;66.00;;;;;;4946728;28;86309;-79
2022/11/19 03:06:08;;;;;;;2.13;1.10;;;20.20;66.00;;;;;;5012720;28;86562;-79
2022/11/19 03:08:34;;;;;;;1.98;1.20;;;20.20;66.00;;;;;;5019060;28;85679;-79
2022/11/19 03:11:20;;;;;;;1.70;0.88;;;20.20;65.90;;;;;;5018716;28;87320;-79
2022/11/19 03:17:08;;;;;;;1.85;1.10;;;20.20;66.00;;;;;;5015233;28;86162;-79
2022/11/19 03:19:57;;;;;;;2.45;1.27;;;20.20;65.90;;;;;;5015535;28;86076;-79
2022/11/19 03:22:40;;;;;;;1.85;1.08;;;20.10;65.90;;;;;;5017189;28;86447;-80
2022/11/19 03:25:19;;;;;;;1.52;0.85;;;20.20;65.90;;;;;;5016467;28;86501;-80
2022/11/19 03:27:48;;;;;;;1.42;1.08;;;20.10;66.00;;;;;;5015298;27;86450;-79
2022/11/19 03:30:15;;;;;;;1.75;1.10;;;20.10;66.00;;;;;;5014742;28;86268;-80
2022/11/19 03:32:48;;;;;;;1.13;1.00;;;20.10;66.10;;;;;;5013229;28;86502;-79
2022/11/19 03:35:24;;;;;;;1.25;0.90;;;20.10;65.80;;;;;;5036469;27;90932;-80
2022/11/19 03:37:53;;;;;;;1.50;1.15;;;20.10;65.80;;;;;;5039377;27;86369;-80
2022/11/19 03:40:19;;;;;;;1.40;0.97;;;20.10;65.90;;;;;;5034247;27;85984;-79
2022/11/19 03:42:48;;;;;;;2.25;1.30;;;20.10;65.90;;;;;;5037668;27;87968;-79
2022/11/19 03:45:27;;;;;;;2.03;1.20;;;20.10;65.90;;;;;;5038390;27;86609;-80
2022/11/19 03:47:54;;;;;;;1.50;1.05;;;20.00;65.80;;;;;;5035610;27;86329;-79
2022/11/19 03:50:44;;;;;;;2.22;1.13;;;20.00;65.80;;;;;;5036613;27;86078;-79
2022/11/19 03:53:10;;;;;;;1.00;0.90;;;20.10;66.20;;;;;;5018165;28;91593;-80
2022/11/19 03:55:46;;;;;;;1.45;1.10;;;20.00;66.10;;;;;;5027880;27;86521;-80
2022/11/19 03:58:12;;;;;;;1.40;0.90;;;20.00;66.20;;;;;;5024886;27;85692;-79
2022/11/19 04:00:37;;;;;;;1.17;0.95;;;20.00;66.10;;;;;;5017238;28;86016;-80
2022/11/19 04:03:03;;;;;;;1.42;0.93;;;20.00;66.20;;;;;;5013619;28;86852;-80
2022/11/19 04:05:29;;;;;;;2.17;1.00;;;20.00;66.30;;;;;;5018021;28;86658;-79
2022/11/19 04:07:55;;;;;;;1.88;1.30;;;20.00;66.90;;;;;;5014016;28;86157;-80
2022/11/19 04:10:20;;;;;;;1.23;1.10;;;20.00;66.00;;;;;;5015900;27;86189;-80
2022/11/19 04:12:46;;;;;;;1.58;1.00;;;20.00;65.90;;;;;;5015252;28;87132;-80
2022/11/19 04:15:13;;;;;;;2.30;1.27;;;20.00;65.90;;;;;;5013424;28;87476;-80
2022/11/19 04:17:39;;;;;;;1.25;0.90;;;20.00;66.00;;;;;;5014987;28;85869;-80
2022/11/19 04:20:08;;;;;;;1.80;1.20;;;20.00;65.80;;;;;;5013555;28;86624;-80
2022/11/19 04:22:34;;;;;;;;;;;20.00;66.10;;;;;;5015836;28;89319;-80
2022/11/19 04:24:59;;;;;;;1.50;1.08;;;20.00;65.80;;;;;;5015112;27;87083;-80
2022/11/19 04:27:25;;;;;;;1.73;1.00;;;20.00;65.90;;;;;;5015468;28;86772;-80
2022/11/19 04:29:50;;;;;;;1.23;1.05;;;20.00;65.80;;;;;;5016063;28;85993;-80
2022/11/19 04:32:17;;;;;;;1.08;0.88;;;20.00;65.90;;;;;;5016650;28;86976;-80
2022/11/19 04:34:42;;;;;;;1.35;1.10;;;20.00;65.80;;;;;;5013482;28;86516;-80
2022/11/19 04:37:08;;;;;;;1.33;0.90;;;20.00;66.00;;;;;;5015831;28;85786;-80
2022/11/19 04:39:33;;;;;;;1.77;1.10;;;20.00;66.00;;;;;;5016831;27;86768;-80
2022/11/19 04:41:59;;;;;;;1.77;1.23;;;20.00;66.00;;;;;;5016776;28;86371;-80
2022/11/19 04:44:25;;;;;;;1.33;1.13;;;20.00;65.80;;;;;;5019656;28;86236;-80
2022/11/19 04:46:50;;;;;;;1.25;1.05;;;19.90;65.80;;;;;;5014224;28;86241;-80
2022/11/19 04:49:16;;;;;;;1.10;1.00;;;19.90;65.80;;;;;;5014523;28;86492;-80
2022/11/19 04:51:42;;;;;;;2.38;1.00;;;19.90;65.70;;;;;;5013597;27;86604;-80
2022/11/19 04:54:07;;;;;;;1.30;0.90;;;19.90;65.90;;;;;;5015898;28;86352;-80
2022/11/19 04:56:34;;;;;;;1.17;1.00;;;19.90;66.00;;;;;;5015238;28;85747;-80
2022/11/19 04:59:00;;;;;;;1.38;1.00;;;19.90;65.90;;;;;;5017983;28;85769;-80
2022/11/19 05:01:25;;;;;;;1.40;1.10;;;19.90;66.00;;;;;;5013592;28;86897;-80
2022/11/19 05:03:51;;;;;;;2.30;1.10;;;19.90;66.00;;;;;;5015558;28;87211;-80
2022/11/19 05:06:17;;;;;;;1.90;1.10;;;19.90;66.00;;;;;;5014799;27;85821;-80
2022/11/19 05:08:43;;;;;;;1.15;1.00;;;19.90;66.00;;;;;;5014242;28;86127;-80
2022/11/19 05:11:08;;;;;;;1.00;0.90;;;19.90;66.20;;;;;;5012583;28;86651;-81
2022/11/19 05:13:34;;;;;;;1.10;1.00;;;19.90;66.20;;;;;;5013790;28;86683;-80
2022/11/19 05:16:00;;;;;;;2.13;1.25;;;19.80;66.00;;;;;;5012983;28;86073;-79
2022/11/19 05:18:25;;;;;;;1.05;0.75;;;19.80;66.10;;;;;;5014292;28;88279;-80
2022/11/19 05:20:51;;;;;;;1.00;0.88;;;19.80;66.10;;;;;;5013669;27;87907;-80
2022/11/19 05:23:17;;;;;;;1.27;1.00;;;19.80;66.00;;;;;;5014983;28;87033;-80
2022/11/19 05:25:42;;;;;;;1.55;0.90;;;19.80;66.10;;;;;;5014875;28;86605;-80
2022/11/19 05:28:08;;;;;;;1.63;1.23;;;19.80;66.00;;;;;;5010844;28;85811;-80
2022/11/19 05:30:34;;;;;;;1.30;0.98;;;19.80;65.90;;;;;;5015649;28;86552;-80
2022/11/19 05:32:59;;;;;;;1.38;0.90;;;19.80;65.70;;;;;;5012804;28;86387;-80
2022/11/19 05:35:25;;;;;;;1.30;1.08;;;19.80;65.90;;;;;;5013522;27;85738;-80
2022/11/19 05:37:51;;;;;;;1.25;0.90;;;19.80;65.90;;;;;;5016318;28;85875;-80
2022/11/19 05:40:17;;;;;;;1.67;1.13;;;19.80;65.80;;;;;;5013335;28;86898;-80
2022/11/19 05:42:43;;;;;;;1.67;0.90;;;19.80;65.70;;;;;;5016466;28;86432;-80
2022/11/19 05:45:09;;;;;;;0.82;0.82;;;19.80;65.80;;;;;;5011839;28;85791;-80
2022/11/19 05:47:35;;;;;;;1.05;0.95;;;19.80;65.80;;;;;;5015193;27;85831;-80
2022/11/19 05:50:01;;;;;;;1.38;0.88;;;19.80;65.80;;;;;;5015374;28;85726;-80
2022/11/19 05:52:27;;;;;;;1.65;1.00;;;19.70;65.70;;;;;;5011373;28;86144;-80
2022/11/19 05:54:52;;;;;;;1.38;1.05;;;19.80;65.70;;;;;;5013672;28;87191;-80
2022/11/19 05:57:18;;;;;;;1.23;0.90;;;19.80;65.70;;;;;;5013663;28;85895;-80
2022/11/19 05:59:43;;;;;;;2.47;1.25;;;19.80;65.70;;;;;;5018506;28;87092;-80
2022/11/19 06:02:09;;;;;;;1.20;1.10;;;19.70;65.60;;;;;;5013144;27;88049;-80
2022/11/19 06:04:35;;;;;;;1.30;1.13;;;19.70;65.70;;;;;;5017914;28;86241;-80
2022/11/19 06:07:00;;;;;;;1.10;0.98;;;19.70;65.70;;;;;;5015049;28;86109;-80
2022/11/19 06:09:26;;;;;;;1.10;1.00;;;19.70;65.80;;;;;;5016127;28;87456;-80
2022/11/19 06:11:52;;;;;;;1.58;1.25;;;19.70;65.80;;;;;;5012568;28;86945;-80
2022/11/19 06:14:22;;;;;;;1.42;1.30;;;19.70;65.70;;;;;;5014837;28;86312;-80
2022/11/19 06:16:50;;;;;;;1.40;1.30;;;19.70;65.60;;;;;;5015634;28;85712;-79
2022/11/19 06:19:16;;;;;;;1.25;1.15;;;19.70;65.70;;;;;;5014858;28;87649;-80
2022/11/19 06:21:42;;;;;;;1.27;1.17;;;19.70;65.70;;;;;;5014570;28;86792;-80
2022/11/19 06:24:07;;;;;;;1.10;0.90;;;19.70;65.60;;;;;;5015303;28;86588;-80
2022/11/19 06:26:33;;;;;;;1.38;1.00;;;19.70;65.60;;;;;;5012129;28;86422;-80
2022/11/19 06:28:58;;;;;;;1.05;0.90;;;19.70;65.60;;;;;;5010536;28;86672;-80
2022/11/19 06:31:24;;;;;;;1.58;0.98;;;19.70;65.70;;;;;;5010142;27;86760;-79
2022/11/19 06:33:52;;;;;;;1.00;0.90;;;19.60;65.60;;;;;;5012353;28;86022;-80
2022/11/19 06:36:18;;;;;;;1.60;1.10;;;19.70;65.60;;;;;;5013364;28;86306;-80
2022/11/19 06:38:43;;;;;;;1.85;1.45;;;19.70;65.70;;;;;;5011674;28;86448;-80
2022/11/19 06:41:09;;;;;;;1.45;1.20;;;19.60;65.40;;;;;;5012289;28;86900;-80
2022/11/19 06:43:35;;;;;;;0.88;0.85;;;19.70;65.50;;;;;;5014695;28;86171;-80
2022/11/19 06:46:00;;;;;;;1.27;1.17;;;19.60;65.50;;;;;;5015164;27;86148;-80
2022/11/19 06:48:26;;;;;;;0.98;0.82;;;19.60;65.50;;;;;;5013762;28;87097;-80
2022/11/19 06:50:51;;;;;;;1.10;0.98;;;19.60;65.60;;;;;;5018622;28;86574;-80
2022/11/19 06:53:17;;;;;;;1.17;1.08;;;19.60;65.50;;;;;;4995410;28;86391;-80
2022/11/19 06:55:43;;;;;;;1.88;1.35;;;19.60;65.50;;;;;;5017374;28;86417;-80
2022/11/19 06:58:08;;;;;;;1.40;1.23;;;19.60;65.60;;;;;;5015151;27;86809;-80
2022/11/19 07:00:34;;;;;;;1.33;1.20;;;19.60;65.50;;;;;;5018814;28;86426;-80
2022/11/19 07:03:01;;;;;;;2.75;1.23;;;19.60;65.50;;;;;;5018911;28;86775;-80
2022/11/19 07:05:27;;;;;;;4.28;1.17;;;19.70;65.30;;;;;;5017060;28;85959;-81
2022/11/19 07:07:52;;;;;;;1.15;1.05;;;19.90;64.90;;;;;;5001958;28;89589;-81
2022/11/19 07:10:18;;;;;;;1.52;1.27;;;19.90;64.30;;;;;;5017685;28;86717;-80
2022/11/19 07:12:44;;;;;;;3.78;1.30;;;20.00;64.10;;;;;;5017854;27;86683;-82
2022/11/19 07:15:10;;;;;;;4.70;1.55;;;20.10;62.30;;;;;;5021827;28;86530;-82
2022/11/19 07:17:36;;;;;;;1.50;1.30;;;20.20;60.10;;;;;;5020191;28;86165;-80
2022/11/19 07:20:03;;;;;;;1.92;1.27;;;20.20;61.30;;;;;;5024352;28;86351;-81
2022/11/19 07:22:31;;;;;;;1.98;1.58;;;20.20;63.10;;;;;;5018047;28;86224;-81
2022/11/19 07:24:57;;;;;;;2.45;1.70;;;20.20;63.40;;;;;;5019274;28;86117;-81
2022/11/19 07:27:22;;;;;;;2.20;1.60;;;20.10;64.30;;;;;;5014618;27;86825;-81
2022/11/19 07:29:48;;;;;;;2.58;1.70;;;20.10;64.80;;;;;;5020814;28;87615;-80
2022/11/19 07:32:14;;;;;;;2.28;1.77;;;20.20;64.30;;;;;;5016742;28;86152;-80
2022/11/19 07:34:39;;;;;;;3.63;1.80;;;20.30;63.60;;;;;;5017545;28;85724;-80
2022/11/19 07:37:05;;;;;;;4.18;1.60;;;20.30;63.60;;;;;;5017673;28;87781;-81
2022/11/19 07:39:30;;;;;;;2.80;1.85;;;20.50;63.30;;;;;;5013288;28;87165;-81
2022/11/19 07:44:40;;;;;;;2.92;1.83;;;20.50;63.50;;;;;;5018315;28;86137;-81
2022/11/19 07:47:07;;;;;;;2.63;1.60;;;20.50;63.70;;;;;;5018402;28;86392;-81
2022/11/19 07:49:33;;;;;;;3.88;1.75;;;20.50;63.90;;;;;;5012737;28;87372;-81
2022/11/19 07:51:59;;;;;;;2.10;1.50;;;20.50;63.70;;;;;;5013205;28;85859;-80
2022/11/19 07:54:24;;;;;;;5.80;1.77;;;20.50;63.70;;;;;;5015550;27;86042;-81
2022/11/19 07:56:50;;;;;;;3.55;2.05;;;20.50;63.90;;;;;;5016062;28;87291;-81
2022/11/19 07:59:16;;;;;;;3.50;1.80;;;20.50;64.00;;;;;;5016724;28;86300;-81
2022/11/19 08:01:42;;;;;;;1.92;1.58;;;20.50;64.90;;;;;;5014406;28;86420;-81
2022/11/19 08:04:07;;;;;;;1.98;1.77;;;20.50;64.10;;;;;;5013752;28;86013;-81
2022/11/19 08:06:33;;;;;;;2.40;1.98;;;20.50;64.00;;;;;;5012390;28;87607;-81
2022/11/19 08:09:00;;;;;;;4.22;1.95;;;20.50;64.00;;;;;;5012867;27;86559;-80
2022/11/19 08:11:26;;;;;;;4.88;1.90;;;20.50;64.10;;;;;;5018134;28;86226;-80
2022/11/19 08:13:52;;;;;;;1.75;1.65;;;20.40;64.80;;;;;;5014441;28;86486;-79
2022/11/19 08:19:05;;;;;;;2.55;1.88;;;20.50;64.20;;;;;;5014309;28;86083;-80
2022/11/19 08:21:31;;;;;;;2.97;1.95;;;20.50;64.20;;;;;;5013005;28;86195;-80
2022/11/19 08:23:57;;;;;;;1.95;1.67;;;20.50;64.20;;;;;;5018407;27;85750;-80
2022/11/19 08:26:22;;;;;;;4.28;2.20;;;20.40;64.10;;;;;;5013265;28;86206;-79
2022/11/19 08:28:48;;;;;;;3.42;1.83;;;20.50;64.20;;;;;;5015353;28;87451;-79
2022/11/19 08:31:14;;;;;;;6.00;2.50;;;20.50;64.30;;;;;;5012425;28;86511;-79
2022/11/19 08:33:39;;;;;;;6.97;2.05;;;20.50;64.00;;;;;;5015727;28;86042;-80
2022/11/19 08:36:05;;;;;;;3.83;2.58;;;20.50;64.10;;;;;;5017977;28;87244;-80
2022/11/19 08:38:30;;;;;;;5.38;2.17;;;20.60;63.30;;;;;;5013705;27;87653;-80
2022/11/19 08:43:40;;;;;;;5.97;2.60;;;20.60;63.20;;;;;;5012829;28;86144;-80
2022/11/19 08:46:07;;;;;;;5.15;2.50;;;20.60;63.30;;;;;;5013765;28;87153;-80
2022/11/19 08:48:33;;;;;;;10.43;2.90;;;20.60;63.40;;;;;;4969795;28;89732;-80
2022/11/19 08:51:02;;;;;;;8.43;2.65;;;20.50;63.70;;;;;;5010640;27;86001;-80
2022/11/19 08:53:27;;;;;;;;;;;20.50;63.90;;;;;;5013889;28;86344;-79
2022/11/19 08:55:53;;;;;;;18.50;5.03;;;20.50;63.80;;;;;;5018611;28;87208;-80
2022/11/19 08:58:19;;;;;;;18.48;5.22;;;20.60;63.20;;;;;;5016633;28;86642;-80
2022/11/19 09:00:44;;;;;;;14.95;4.55;;;20.60;63.30;;;;;;5010687;28;86116;-79
2022/11/19 09:03:10;;;;;;;20.60;5.03;;;20.70;63.30;;;;;;5015857;28;86049;-79
2022/11/19 09:05:35;;;;;;;14.98;4.80;;;20.60;63.30;;;;;;5011326;27;87656;-79
2022/11/19 09:08:01;;;;;;;11.00;4.30;;;20.70;63.50;;;;;;5012127;28;87008;-79
2022/11/19 09:10:27;;;;;;;18.17;5.72;;;20.70;63.70;;;;;;5012449;28;86191;-79
2022/11/19 09:12:52;;;;;;;21.45;5.32;;;20.60;63.50;;;;;;5009019;28;86075;-80
2022/11/19 09:15:19;;;;;;;12.73;4.72;;;20.70;63.70;;;;;;5013387;28;86536;-80
2022/11/19 09:17:44;;;;;;;17.08;5.30;;;20.60;63.60;;;;;;5014594;28;88172;-80
2022/11/19 09:20:10;;;;;;;16.50;5.10;;;20.70;63.60;;;;;;5016099;27;88119;-80
2022/11/19 09:22:36;;;;;;;13.82;5.53;;;20.60;63.70;;;;;;5014274;28;85990;-80
2022/11/19 09:25:03;;;;;;;17.65;5.38;;;20.60;63.60;;;;;;5014821;28;87311;-80
2022/11/19 09:27:29;;;;;;;11.63;4.80;;;20.70;64.00;;;;;;5015723;28;88383;-81
2022/11/19 09:29:54;;;;;;;11.95;5.10;;;20.80;63.50;;;;;;5013778;28;86153;-81
2022/11/19 09:32:20;;;;;;;19.73;5.55;;;20.70;63.20;;;;;;4999980;28;86357;-81
2022/11/19 09:34:46;;;;;;;16.83;5.90;;;20.70;63.30;;;;;;5016885;27;86894;-81
2022/11/19 09:37:11;;;;;;;15.82;5.30;;;20.70;63.30;;;;;;5013900;28;86731;-80
2022/11/19 09:39:37;;;;;;;21.13;6.20;;;20.80;63.00;;;;;;5014618;28;86427;-80
2022/11/19 09:42:15;;;;;;;17.70;5.50;;;20.90;63.20;;;;;;5015359;28;86195;-80
2022/11/19 09:44:44;;;;;;;11.38;5.00;;;20.80;63.10;;;;;;5016917;28;86865;-80
2022/11/19 09:47:37;;;;;;;16.60;6.17;;;20.80;63.00;;;;;;5011821;27;87470;-79
2022/11/19 09:50:15;;;;;;;15.60;5.45;;;20.90;63.20;;;;;;5011795;28;85770;-80
2022/11/19 09:53:02;;;;;;;12.55;4.95;;;20.80;63.00;;;;;;5011353;28;86486;-80
2022/11/19 09:55:31;;;;;;;10.07;4.85;;;20.90;62.90;;;;;;5012329;28;86853;-80
2022/11/19 09:57:58;;;;;;;15.00;6.10;;;21.00;62.70;;;;;;5013311;28;86881;-80
2022/11/19 10:00:29;;;;;;;12.48;5.57;;;21.00;62.60;;;;;;5018944;28;86385;-80
2022/11/19 10:03:01;;;;;;;15.23;5.43;;;21.10;62.60;;;;;;5013394;27;86105;-80
2022/11/19 10:05:38;;;;;;;12.10;6.00;;;21.10;62.30;;;;;;5015540;28;86852;-80
2022/11/19 10:08:06;;;;;;;15.75;5.80;;;21.10;62.30;;;;;;5014212;28;86718;-79
2022/11/19 10:10:41;;;;;;;14.45;5.72;;;21.10;62.80;;;;;;5012531;28;85933;-80
2022/11/19 10:13:13;;;;;;;12.20;5.05;;;21.10;62.40;;;;;;5013057;28;86249;-80
2022/11/19 10:15:54;;;;;;;25.30;8.55;;;21.10;63.00;;;;;;5012548;28;86688;-80
2022/11/19 10:18:49;;;;;;;23.33;9.57;;;21.10;60.60;;;;;;5013394;28;86818;-80
2022/11/19 10:21:40;;;;;;;21.98;8.48;;;21.10;60.20;;;;;;5013042;28;86179;-80
2022/11/19 10:24:16;;;;;;;20.20;7.68;;;21.20;60.00;;;;;;5016990;28;86328;-79
2022/11/19 10:26:48;;;;;;;16.02;7.13;;;21.20;60.20;;;;;;5016513;28;87456;-80
2022/11/19 10:29:20;;;;;;;17.48;8.02;;;21.40;55.70;;;;;;5035195;27;91015;-80
2022/11/19 10:31:48;;;;;;;64.05;20.77;;;21.50;54.60;;;;;;5021438;27;86049;-80
2022/11/19 10:34:27;;;;;;;64.45;21.98;;;21.50;58.00;;;;;;5016679;28;86307;-80
2022/11/19 10:37:03;;;;;;;69.53;22.65;;;21.40;59.00;;;;;;5014932;28;86217;-80
2022/11/19 10:39:40;;;;;;;64.53;22.35;;;21.30;59.50;;;;;;5017604;28;86746;-80
2022/11/19 10:42:21;;;;;;;66.75;22.60;;;21.30;59.90;;;;;;5013326;28;85990;-80
2022/11/19 10:45:02;;;;;;;58.70;21.75;;;21.40;60.00;;;;;;5019542;28;86294;-79
2022/11/19 10:47:35;;;;;;;54.85;20.25;;;21.40;60.30;;;;;;5014777;28;86304;-81
2022/11/19 10:50:01;;;;;;;44.60;17.88;;;21.30;59.50;;;;;;5019221;28;86578;-80
2022/11/19 10:52:30;;;;;;;49.53;19.73;;;21.30;59.10;;;;;;5017750;28;86164;-80
2022/11/19 10:55:03;;;;;;;43.60;18.23;;;21.30;58.60;;;;;;5023059;28;86444;-81
2022/11/19 10:57:31;;;;;;;47.47;16.42;;;21.30;58.50;;;;;;5017085;27;89403;-82
2022/11/19 10:59:58;;;;;;;37.53;15.25;;;21.40;58.40;;;;;;5019986;28;86446;-82
2022/11/19 11:02:40;;;;;;;40.58;15.07;;;21.50;58.50;;;;;;5022512;28;86133;-82
2022/11/19 11:05:11;;;;;;;37.47;14.90;;;21.50;58.80;;;;;;5020250;28;86406;-81
2022/11/19 11:07:47;;;;;;;37.55;14.50;;;21.50;59.20;;;;;;5021050;28;87450;-83
2022/11/19 11:10:34;;;;;;;36.08;14.52;;;21.50;59.40;;;;;;5022174;28;86907;-82
2022/11/19 11:15:53;;;;;;;33.75;13.27;;;21.50;59.40;;;;;;5019104;28;85940;-82
2022/11/19 11:18:25;;;;;;;33.22;13.48;;;21.50;59.90;;;;;;5022690;28;86410;-82
2022/11/19 11:20:51;;;;;;;37.92;14.35;;;21.60;60.00;;;;;;5015225;28;86469;-81
2022/11/19 11:23:22;;;;;;;38.05;13.38;;;21.60;60.00;;;;;;5019299;28;86076;-81
2022/11/19 11:25:51;;;;;;;30.67;12.57;;;21.60;60.10;;;;;;5017159;27;86737;-82
2022/11/19 11:28:19;;;;;;;29.77;13.32;;;21.60;60.40;;;;;;5018248;27;86228;-81
2022/11/19 11:31:01;;;;;;;39.05;15.55;;;21.60;60.40;;;;;;5018060;28;86184;-81
2022/11/19 11:33:38;;;;;;;39.55;16.92;;;21.50;58.90;;;;;;5018340;28;86183;-81
2022/11/19 11:36:06;;;;;;;33.03;13.68;;;21.40;59.10;;;;;;5017187;28;86593;-81
2022/11/19 11:38:48;;;;;;;34.70;13.77;;;21.30;60.10;;;;;;5015915;28;88203;-81
2022/11/19 11:41:41;;;;;;;28.65;13.60;;;21.20;60.70;;;;;;5037868;27;91331;-81
2022/11/19 11:44:34;;;;;;;33.42;13.85;;;21.30;60.60;;;;;;5014677;27;86276;-81
2022/11/19 11:47:03;;;;;;;32.80;13.63;;;21.30;61.50;;;;;;5012970;28;86115;-81
2022/11/19 11:49:29;;;;;;;;;;;21.30;61.50;;;;;;5012381;28;86376;-81
2022/11/19 11:52:25;;;;;;;29.25;13.00;;;21.30;61.90;;;;;;5014021;28;86091;-80
2022/11/19 11:55:00;;;;;;;29.02;13.93;;;21.30;61.90;;;;;;5015642;27;85937;-80
2022/11/19 11:57:28;;;;;;;26.73;12.43;;;21.30;62.90;;;;;;5010275;28;86339;-80
2022/11/19 11:59:55;;;;;;;29.17;12.02;;;21.30;62.10;;;;;;4999897;28;90096;-79
2022/11/19 12:02:31;;;;;;;34.55;12.75;;;21.30;61.90;;;;;;5012134;28;86199;-80
2022/11/19 12:05:15;;;;;;;28.08;13.10;;;21.30;62.30;;;;;;5015097;28;85880;-79
2022/11/19 12:07:45;;;;;;;29.80;12.02;;;21.20;62.50;;;;;;5010191;27;85992;-80
2022/11/19 12:10:32;;;;;;;29.55;13.32;;;21.20;62.40;;;;;;5013092;28;86890;-80
2022/11/19 12:13:34;;;;;;;27.42;13.55;;;21.20;63.10;;;;;;5012237;28;86411;-80
2022/11/19 12:16:05;;;;;;;32.08;13.27;;;21.20;62.40;;;;;;5009488;28;87220;-80
2022/11/19 12:18:50;;;;;;;29.02;12.68;;;21.20;62.60;;;;;;5012774;28;85894;-80
2022/11/19 12:21:37;;;;;;;29.13;13.10;;;21.20;62.20;;;;;;5011842;28;87462;-80
2022/11/19 12:24:30;;;;;;;23.10;12.10;;;21.30;61.80;;;;;;4994735;28;88912;-80
2022/11/19 12:26:58;;;;;;;23.60;11.05;;;21.40;61.40;;;;;;5008257;28;86070;-79
2022/11/19 12:29:31;;;;;;;18.67;10.20;;;21.30;58.30;;;;;;5011854;28;86259;-79
2022/11/19 12:32:22;;;;;;;23.83;10.32;;;21.30;57.70;;;;;;5013295;28;86428;-80
2022/11/19 12:34:57;;;;;;;25.23;11.32;;;21.30;58.00;;;;;;5012005;28;86358;-79
2022/11/19 12:37:39;;;;;;;20.05;11.00;;;21.20;59.20;;;;;;5010554;28;86276;-79
2022/11/19 12:40:17;;;;;;;24.13;10.82;;;21.20;59.80;;;;;;5009079;28;86394;-79
2022/11/19 12:43:03;;;;;;;18.98;10.68;;;21.10;59.90;;;;;;5012449;28;87235;-80
2022/11/19 12:46:07;;;;;;;19.10;11.10;;;21.10;60.10;;;;;;5010244;28;86674;-80
2022/11/19 12:48:50;;;;;;;23.42;10.68;;;21.20;60.40;;;;;;5011605;28;86424;-81
2022/11/19 12:51:33;;;;;;;19.88;11.25;;;21.20;60.50;;;;;;5011168;27;85795;-80
2022/11/19 12:54:34;;;;;;;24.42;10.57;;;21.30;60.60;;;;;;5009023;28;86356;-81
2022/11/19 12:57:11;;;;;;;21.77;10.60;;;21.30;60.50;;;;;;4990572;28;87684;-81
2022/11/19 12:59:46;;;;;;;17.92;9.98;;;21.30;60.60;;;;;;5004871;28;85953;-81
2022/11/19 13:02:24;;;;;;;20.77;9.82;;;21.30;60.70;;;;;;5012661;28;86374;-81
2022/11/19 13:05:10;;;;;;;17.77;10.83;;;21.30;60.80;;;;;;5031444;27;91263;-81
2022/11/19 13:07:40;;;;;;;20.10;11.13;;;21.30;60.90;;;;;;4955374;28;87829;-81
2022/11/19 13:10:22;;;;;;;21.60;11.52;;;21.20;60.80;;;;;;4955308;28;85824;-80
2022/11/19 13:12:53;;;;;;;20.60;9.95;;;21.20;60.90;;;;;;4962249;28;86368;-81
2022/11/19 13:15:30;;;;;;;19.73;10.60;;;21.20;60.60;;;;;;4962708;28;87490;-80
2022/11/19 13:18:00;;;;;;;16.27;9.18;;;21.20;60.80;;;;;;4961981;28;87070;-80
2022/11/19 13:20:54;;;;;;;16.45;9.70;;;21.20;60.90;;;;;;4963611;28;86113;-81